createdAt,value
2022-10-18T00:01:25.555Z,100831.28
2022-10-18T00:03:53.113Z,100830.44
2022-10-18T00:06:20.677Z,100837.50
2022-10-18T00:08:48.321Z,100837.50
2022-10-18T00:11:15.886Z,100836.66
2022-10-18T00:13:44.895Z,100840.06
2022-10-18T00:16:12.527Z,100839.06
2022-10-18T00:18:40.127Z,100845.16
2022-10-18T00:21:07.701Z,100840.50
2022-10-18T00:23:35.295Z,100834.13
2022-10-18T00:26:03.193Z,100830.47
2022-10-18T00:28:30.786Z,100829.34
2022-10-18T00:30:58.412Z,100824.78
2022-10-18T00:33:25.953Z,100826.50
2022-10-18T00:35:54.142Z,100817.47
2022-10-18T00:38:22.049Z,100815.59
2022-10-18T00:40:49.584Z,100818.28
2022-10-18T00:43:17.274Z,100808.41
2022-10-18T00:45:44.876Z,100818.28
2022-10-18T00:48:12.454Z,100812.91
2022-10-18T00:50:40.728Z,100811.09
2022-10-18T00:53:08.319Z,100809.22
2022-10-18T00:55:35.887Z,100807.53
2022-10-18T00:58:03.946Z,100812.09
2022-10-18T01:00:31.549Z,100816.47
2022-10-18T01:02:59.696Z,100812.91
2022-10-18T01:05:27.238Z,100813.78
2022-10-18T01:07:54.825Z,100813.78
2022-10-18T01:10:22.423Z,100802.16
2022-10-18T01:12:49.984Z,100803.03
2022-10-18T01:15:18.123Z,100798.47
2022-10-18T01:17:45.705Z,100797.66
2022-10-18T01:20:13.246Z,100792.41
2022-10-18T01:22:40.793Z,100796.78
2022-10-18T01:25:08.336Z,100800.47
2022-10-18T01:27:36.456Z,100797.91
2022-10-18T01:30:04.025Z,100805.84
2022-10-18T01:32:31.587Z,100805.97
2022-10-18T01:34:59.136Z,100814.03
2022-10-18T01:37:26.745Z,100812.34
2022-10-18T01:39:55.001Z,100806.97
2022-10-18T01:42:22.558Z,100808.09
2022-10-18T01:44:50.128Z,100796.50
2022-10-18T01:47:17.664Z,100802.88
2022-10-18T01:49:45.222Z,100796.63
2022-10-18T01:52:13.138Z,100794.81
2022-10-18T01:54:40.679Z,100795.78
2022-10-18T01:57:08.763Z,100784.19
2022-10-18T01:59:36.335Z,100784.31
2022-10-18T02:02:04.357Z,100787.00
2022-10-18T02:04:32.487Z,100784.31
2022-10-18T02:07:00.079Z,100785.16
2022-10-18T02:09:27.643Z,100776.09
2022-10-18T02:11:55.179Z,100772.56
2022-10-18T02:14:23.443Z,100768.03
2022-10-18T02:16:51.315Z,100776.97
2022-10-18T02:19:18.935Z,100777.94
2022-10-18T02:21:46.667Z,100777.22
2022-10-18T02:24:14.706Z,100769.56
2022-10-18T02:26:42.249Z,100767.00
2022-10-18T02:29:10.261Z,100772.38
2022-10-18T02:31:37.783Z,100772.38
2022-10-18T02:34:05.312Z,100769.69
2022-10-18T02:36:32.927Z,100772.53
2022-10-18T02:39:00.476Z,100769.97
2022-10-18T02:41:28.611Z,100765.72
2022-10-18T02:43:56.211Z,100769.41
2022-10-18T02:46:23.810Z,100766.84
2022-10-18T02:48:51.395Z,100771.38
2022-10-18T02:51:18.949Z,100774.06
2022-10-18T02:53:47.061Z,100772.22
2022-10-18T02:56:14.577Z,100776.59
2022-10-18T02:58:42.142Z,100778.31
2022-10-18T03:01:09.721Z,100778.31
2022-10-18T03:03:37.289Z,100772.94
2022-10-18T03:06:06.840Z,100776.47
2022-10-18T03:08:34.384Z,100771.22
2022-10-18T03:11:01.926Z,100766.72
2022-10-18T03:16:02.373Z,100776.59
2022-10-18T03:18:30.296Z,100773.91
2022-10-18T03:20:57.870Z,100769.53
2022-10-18T03:23:25.461Z,100767.81
2022-10-18T03:25:52.966Z,100765.13
2022-10-18T03:28:20.856Z,100774.91
2022-10-18T03:30:48.963Z,100772.22
2022-10-18T03:33:16.467Z,100774.06
2022-10-18T03:35:44.054Z,100772.22
2022-10-18T03:38:11.607Z,100775.75
2022-10-18T03:40:39.215Z,100770.38
2022-10-18T03:43:07.299Z,100769.53
2022-10-18T03:45:35.929Z,100774.91
2022-10-18T03:48:03.475Z,100767.81
2022-10-18T03:50:31.086Z,100770.63
2022-10-18T03:52:58.647Z,100766.25
2022-10-18T03:55:26.757Z,100763.72
2022-10-18T03:57:54.309Z,100767.38
2022-10-18T04:00:22.810Z,100765.69
2022-10-18T04:02:53.343Z,100774.75
2022-10-18T04:05:24.445Z,100772.22
2022-10-18T04:07:52.654Z,100777.72
2022-10-18T04:10:20.211Z,100770.63
2022-10-18T04:12:48.188Z,100769.66
2022-10-18T04:15:15.750Z,100774.31
2022-10-18T04:17:43.287Z,100774.16
2022-10-18T04:20:11.531Z,100768.78
2022-10-18T04:22:39.103Z,100773.31
2022-10-18T04:25:06.664Z,100770.63
2022-10-18T04:27:34.514Z,100772.47
2022-10-18T04:30:02.313Z,100767.22
2022-10-18T04:32:30.395Z,100770.75
2022-10-18T04:34:58.396Z,100772.59
2022-10-18T04:37:25.979Z,100776.13
2022-10-18T04:39:53.897Z,100774.31
2022-10-18T04:42:21.631Z,100776.00
2022-10-18T04:44:49.519Z,100782.09
2022-10-18T04:47:17.087Z,100781.09
2022-10-18T04:49:44.648Z,100778.41
2022-10-18T04:52:12.252Z,100781.09
2022-10-18T04:54:39.789Z,100785.66
2022-10-18T04:57:09.345Z,100783.66
2022-10-18T04:59:37.298Z,100782.66
2022-10-18T05:02:04.952Z,100781.69
2022-10-18T05:04:32.627Z,100779.84
2022-10-18T05:07:00.170Z,100782.38
2022-10-18T05:09:28.359Z,100779.69
2022-10-18T05:11:55.945Z,100775.19
2022-10-18T05:14:23.476Z,100777.75
2022-10-18T05:16:51.103Z,100780.56
2022-10-18T05:19:18.697Z,100782.38
2022-10-18T05:21:46.265Z,100779.69
2022-10-18T05:24:13.818Z,100782.38
2022-10-18T05:26:41.442Z,100782.38
2022-10-18T05:29:09.139Z,100778.56
2022-10-18T05:31:36.831Z,100769.69
2022-10-18T05:34:04.770Z,100774.91
2022-10-18T05:36:32.383Z,100782.97
2022-10-18T05:39:02.563Z,100774.91
2022-10-18T05:41:32.527Z,100774.78
2022-10-18T05:44:00.086Z,100786.38
2022-10-18T05:46:28.639Z,100780.84
2022-10-18T05:48:56.214Z,100780.03
2022-10-18T05:51:23.805Z,100783.41
2022-10-18T05:53:51.429Z,100770.97
2022-10-18T05:56:19.076Z,100774.47
2022-10-18T05:58:46.939Z,100779.03
2022-10-18T06:01:14.547Z,100791.47
2022-10-18T06:03:42.160Z,100780.72
2022-10-18T06:06:10.085Z,100772.94
2022-10-18T06:08:37.677Z,100778.31
2022-10-18T06:11:05.842Z,100789.06
2022-10-18T06:13:33.918Z,100793.72
2022-10-18T06:16:01.653Z,100799.25
2022-10-18T06:18:29.974Z,100799.25
2022-10-18T06:20:57.617Z,100810.84
2022-10-18T06:23:27.233Z,100806.44
2022-10-18T06:25:54.811Z,100813.53
2022-10-18T06:28:22.473Z,100816.09
2022-10-18T06:30:50.072Z,100815.09
2022-10-18T06:33:17.796Z,100814.97
2022-10-18T06:35:46.049Z,100819.22
2022-10-18T06:38:13.631Z,100811.00
2022-10-18T06:40:41.346Z,100816.25
2022-10-18T06:43:20.444Z,100827.84
2022-10-18T06:45:49.473Z,100820.63
2022-10-18T06:48:17.111Z,100823.31
2022-10-18T06:50:44.705Z,100825.16
2022-10-18T06:53:12.371Z,100831.50
2022-10-18T06:55:40.163Z,100844.13
2022-10-18T06:58:08.368Z,100826.13
2022-10-18T07:00:36.083Z,100834.19
2022-10-18T07:03:03.674Z,100834.19
2022-10-18T07:08:04.336Z,100831.50
2022-10-18T07:10:32.125Z,100844.13
2022-10-18T07:13:26.931Z,100849.63
2022-10-18T07:15:47.610Z,100852.31
2022-10-18T07:18:15.431Z,100863.06
2022-10-18T07:20:43.904Z,100863.94
2022-10-18T07:23:12.034Z,100859.38
2022-10-18T07:25:39.966Z,100861.94
2022-10-18T07:28:07.677Z,100867.19
2022-10-18T07:30:35.501Z,100873.44
2022-10-18T07:33:03.256Z,100867.06
2022-10-18T07:35:31.098Z,100876.84
2022-10-18T07:37:58.900Z,100881.25
2022-10-18T07:40:26.619Z,100877.56
2022-10-18T07:42:54.327Z,100883.66
2022-10-18T07:45:22.850Z,100879.16
2022-10-18T07:47:50.682Z,100878.28
2022-10-18T07:50:18.416Z,100879.16
2022-10-18T07:52:46.331Z,100880.84
2022-10-18T07:55:14.051Z,100877.16
2022-10-18T07:57:42.006Z,100884.25
2022-10-18T08:00:09.819Z,100892.19
2022-10-18T08:02:37.523Z,100892.19
2022-10-18T08:05:05.222Z,100893.00
2022-10-18T08:07:33.998Z,100899.25
2022-10-18T08:10:04.147Z,100904.47
2022-10-18T08:12:31.850Z,100907.16
2022-10-18T08:14:59.741Z,100904.47
2022-10-18T08:17:27.480Z,100908.91
2022-10-18T08:20:11.581Z,100914.13
2022-10-18T08:22:40.853Z,100920.22
2022-10-18T08:25:08.679Z,100920.94
2022-10-18T08:27:36.489Z,100927.88
2022-10-18T08:30:04.824Z,100923.22
2022-10-18T08:32:33.000Z,100922.94
2022-10-18T08:35:03.310Z,100931.56
2022-10-18T08:37:33.636Z,100919.44
2022-10-18T08:40:01.884Z,100927.22
2022-10-18T08:42:29.943Z,100939.28
2022-10-18T08:44:58.014Z,100937.16
2022-10-18T08:47:26.473Z,100943.25
2022-10-18T08:49:54.274Z,100938.44
2022-10-18T08:52:22.512Z,100942.84
2022-10-18T08:54:50.199Z,100944.41
2022-10-18T08:57:18.289Z,100946.09
2022-10-18T08:59:46.681Z,100948.66
2022-10-18T09:02:14.553Z,100949.53
2022-10-18T09:04:42.325Z,100952.34
2022-10-18T09:07:10.173Z,100958.59
2022-10-18T09:09:37.842Z,100955.16
2022-10-18T09:12:06.147Z,100953.34
2022-10-18T09:14:34.328Z,100951.47
2022-10-18T09:17:02.144Z,100963.13
2022-10-18T09:19:29.878Z,100959.72
2022-10-18T09:21:57.675Z,100956.16
2022-10-18T09:24:25.819Z,100964.22
2022-10-18T09:26:53.742Z,100968.78
2022-10-18T09:29:21.624Z,100967.06
2022-10-18T09:31:49.481Z,100975.88
2022-10-18T09:34:17.329Z,100973.00
2022-10-18T09:36:46.418Z,100967.38
2022-10-18T09:39:14.240Z,100974.44
2022-10-18T09:41:41.911Z,100977.03
2022-10-18T09:44:09.831Z,100978.72
2022-10-18T09:46:37.672Z,100981.28
2022-10-18T09:49:06.124Z,100982.25
2022-10-18T09:51:33.863Z,100981.28
2022-10-18T09:54:01.687Z,100975.75
2022-10-18T09:56:29.431Z,100979.28
2022-10-18T09:58:57.716Z,100982.81
2022-10-18T10:01:25.959Z,100980.69
2022-10-18T10:03:53.762Z,100982.97
2022-10-18T10:06:21.717Z,100986.13
2022-10-18T10:08:49.516Z,100986.41
2022-10-18T10:11:17.439Z,100986.00
2022-10-18T10:13:45.678Z,100980.94
2022-10-18T10:16:13.595Z,100979.41
2022-10-18T10:18:41.602Z,100983.38
2022-10-18T10:21:09.655Z,100984.94
2022-10-18T10:23:37.467Z,100985.75
2022-10-18T10:26:05.918Z,100985.06
2022-10-18T10:28:33.853Z,100986.19
2022-10-18T10:31:01.759Z,100982.78
2022-10-18T10:33:29.567Z,100983.91
2022-10-18T10:35:57.522Z,100987.47
2022-10-18T10:38:26.212Z,100986.19
2022-10-18T10:40:54.092Z,100984.63
2022-10-18T10:43:39.416Z,100992.88
2022-10-18T10:46:07.992Z,100991.75
2022-10-18T10:48:36.577Z,100982.66
2022-10-18T10:51:04.520Z,100991.59
2022-10-18T10:53:32.321Z,101000.81
2022-10-18T10:56:00.194Z,100991.03
2022-10-18T10:58:27.954Z,100992.03
2022-10-18T11:00:55.840Z,100991.88
2022-10-18T11:03:29.046Z,100992.72
2022-10-18T11:05:58.092Z,100998.69
2022-10-18T11:08:25.931Z,100992.03
2022-10-18T11:10:53.765Z,100996.84
2022-10-18T11:13:23.863Z,100981.53
2022-10-18T11:15:51.691Z,100986.06
2022-10-18T11:18:19.754Z,100985.56
2022-10-18T11:20:48.232Z,100985.56
2022-10-18T11:23:16.222Z,100977.28
2022-10-18T11:25:45.694Z,100984.53
2022-10-18T11:28:13.499Z,100987.38
2022-10-18T11:30:41.404Z,100991.34
2022-10-18T11:33:09.229Z,100988.72
2022-10-18T11:35:38.993Z,100990.72
2022-10-18T11:38:07.563Z,100992.69
2022-10-18T11:40:35.365Z,100997.97
2022-10-18T11:43:03.184Z,100989.00
2022-10-18T11:48:03.717Z,100995.81
2022-10-18T11:50:32.086Z,100992.34
2022-10-18T11:52:59.844Z,100991.88
2022-10-18T11:55:32.001Z,100988.69
2022-10-18T11:58:00.999Z,100986.53
2022-10-18T12:00:28.715Z,100988.56
2022-10-18T12:02:57.566Z,100987.09
2022-10-18T12:05:25.551Z,100977.78
2022-10-18T12:07:53.330Z,100978.16
2022-10-18T12:10:31.510Z,100973.59
2022-10-18T12:13:09.646Z,100966.25
2022-10-18T12:15:37.573Z,100967.94
2022-10-18T12:18:05.420Z,100954.03
2022-10-18T12:20:33.558Z,100952.84
2022-10-18T12:23:02.021Z,100954.16
2022-10-18T12:25:30.417Z,100957.41
2022-10-18T12:27:58.332Z,100949.19
2022-10-18T12:30:26.654Z,100947.03
2022-10-18T12:33:10.028Z,100945.38
2022-10-18T12:35:43.170Z,100952.34
2022-10-18T12:38:10.915Z,100949.47
2022-10-18T12:40:38.723Z,100942.44
2022-10-18T12:43:06.612Z,100947.66
2022-10-18T12:45:35.240Z,100947.84
2022-10-18T12:48:03.306Z,100945.16
2022-10-18T12:50:31.657Z,100946.84
2022-10-18T12:52:59.531Z,100942.97
2022-10-18T12:55:27.363Z,100945.34
2022-10-18T12:57:55.256Z,100953.97
2022-10-18T13:00:23.631Z,100946.84
2022-10-18T13:02:51.606Z,100944.66
2022-10-18T13:05:33.665Z,100946.91
2022-10-18T13:08:07.323Z,100944.19
2022-10-18T13:10:36.887Z,100937.59
2022-10-18T13:13:13.157Z,100937.59
2022-10-18T13:15:42.198Z,100938.41
2022-10-18T13:18:10.040Z,100948.94
2022-10-18T13:20:38.603Z,100943.00
2022-10-18T13:23:06.518Z,100947.72
2022-10-18T13:25:34.279Z,100950.91
2022-10-18T13:28:02.180Z,100948.19
2022-10-18T13:30:30.059Z,100936.41
2022-10-18T13:32:58.481Z,100936.56
2022-10-18T13:35:26.194Z,100940.66
2022-10-18T13:37:54.031Z,100945.19
2022-10-18T13:40:21.789Z,100941.47
2022-10-18T13:42:49.650Z,100948.25
2022-10-18T13:45:18.026Z,100945.19
2022-10-18T13:47:45.832Z,100945.56
2022-10-18T13:50:13.753Z,100951.09
2022-10-18T13:52:42.221Z,100961.13
2022-10-18T13:55:10.123Z,100953.03
2022-10-18T13:57:38.781Z,100954.75
2022-10-18T14:00:06.641Z,100949.78
2022-10-18T14:02:50.291Z,100949.19
2022-10-18T14:05:24.949Z,100953.97
2022-10-18T14:07:53.651Z,100943.00
2022-10-18T14:10:26.756Z,100941.81
2022-10-18T14:13:06.153Z,100952.81
2022-10-18T14:15:34.354Z,100951.81
2022-10-18T14:18:02.532Z,100950.63
2022-10-18T14:20:30.493Z,100955.53
2022-10-18T14:22:58.418Z,100952.00
2022-10-18T14:25:26.316Z,100955.72
2022-10-18T14:27:54.606Z,100966.06
2022-10-18T14:30:22.721Z,100955.69
2022-10-18T14:32:50.524Z,100957.69
2022-10-18T14:35:34.059Z,100954.00
2022-10-18T14:38:02.277Z,100945.47
2022-10-18T14:40:30.283Z,100952.66
2022-10-18T14:42:58.127Z,100949.13
2022-10-18T14:45:26.006Z,100944.56
2022-10-18T14:47:54.738Z,100951.53
2022-10-18T14:50:22.543Z,100945.59
2022-10-18T14:52:50.493Z,100947.50
2022-10-18T14:55:18.378Z,100953.31
2022-10-18T14:57:46.189Z,100951.47
2022-10-18T15:00:14.089Z,100960.69
2022-10-18T15:02:41.999Z,100953.38
2022-10-18T15:05:10.304Z,100960.72
2022-10-18T15:07:38.277Z,100960.97
2022-10-18T15:10:06.091Z,100963.88
2022-10-18T15:12:41.024Z,100971.00
2022-10-18T15:15:13.984Z,100965.69
2022-10-18T15:17:41.948Z,100971.94
2022-10-18T15:20:09.779Z,100975.66
2022-10-18T15:22:37.628Z,100977.38
2022-10-18T15:25:05.338Z,100975.41
2022-10-18T15:27:33.608Z,100972.53
2022-10-18T15:30:03.414Z,100973.09
2022-10-18T15:32:31.611Z,100982.47
2022-10-18T15:34:59.835Z,100982.81
2022-10-18T15:37:28.332Z,100986.03
2022-10-18T15:39:56.576Z,100983.81
2022-10-18T15:42:24.478Z,100989.03
2022-10-18T15:44:52.409Z,100984.19
2022-10-18T15:47:21.841Z,100983.69
2022-10-18T15:49:51.185Z,100996.34
2022-10-18T15:52:19.976Z,100991.00
2022-10-18T15:57:17.924Z,100999.53
2022-10-18T15:59:46.667Z,100998.25
2022-10-18T16:02:14.427Z,101001.53
2022-10-18T16:04:42.347Z,101000.88
2022-10-18T16:07:10.217Z,100993.19
2022-10-18T16:09:38.128Z,101004.22
2022-10-18T16:12:06.088Z,101015.25
2022-10-18T16:14:33.972Z,101012.63
2022-10-18T16:17:02.310Z,101009.19
2022-10-18T16:19:30.190Z,101022.72
2022-10-18T16:22:02.286Z,101022.97
2022-10-18T16:24:33.186Z,101016.81
2022-10-18T16:27:01.009Z,101022.09
2022-10-18T16:29:32.576Z,101020.31
2022-10-18T16:32:00.330Z,101015.00
2022-10-18T16:34:28.187Z,101031.88
2022-10-18T16:36:55.915Z,101023.78
2022-10-18T16:39:23.668Z,101014.91
2022-10-18T16:41:53.089Z,101027.38
2022-10-18T16:44:21.558Z,101032.81
2022-10-18T16:46:52.400Z,101031.13
2022-10-18T16:49:24.201Z,101031.16
2022-10-18T16:51:53.272Z,101041.03
2022-10-18T16:54:21.067Z,101039.22
2022-10-18T16:56:50.433Z,101041.91
2022-10-18T16:59:18.369Z,101046.31
2022-10-18T17:01:46.274Z,101040.81
2022-10-18T17:04:16.051Z,101038.03
2022-10-18T17:06:43.748Z,101047.75
2022-10-18T17:09:11.565Z,101051.16
2022-10-18T17:11:39.423Z,101054.56
2022-10-18T17:14:07.211Z,101050.75
2022-10-18T17:16:35.566Z,101057.56
2022-10-18T17:19:03.493Z,101058.16
2022-10-18T17:21:31.625Z,101058.59
2022-10-18T17:24:01.258Z,101068.16
2022-10-18T17:26:30.189Z,101070.56
2022-10-18T17:28:59.526Z,101073.84
2022-10-18T17:31:27.481Z,101071.63
2022-10-18T17:33:55.804Z,101073.06
2022-10-18T17:36:23.669Z,101070.97
2022-10-18T17:38:51.468Z,101074.28
2022-10-18T17:41:20.195Z,101085.59
2022-10-18T17:43:48.500Z,101090.41
2022-10-18T17:46:16.527Z,101088.16
2022-10-18T17:48:44.447Z,101086.94
2022-10-18T17:51:12.271Z,101096.38
2022-10-18T17:53:40.626Z,101099.47
2022-10-18T17:56:08.567Z,101101.72
2022-10-18T17:58:36.379Z,101099.38
2022-10-18T18:01:04.209Z,101095.34
2022-10-18T18:03:32.055Z,101102.72
2022-10-18T18:06:00.624Z,101104.75
2022-10-18T18:08:28.425Z,101109.47
2022-10-18T18:10:56.808Z,101097.25
2022-10-18T18:13:24.643Z,101105.59
2022-10-18T18:15:52.401Z,101103.34
2022-10-18T18:18:20.789Z,101104.66
2022-10-18T18:20:48.614Z,101100.69
2022-10-18T18:23:16.464Z,101109.13
2022-10-18T18:25:44.456Z,101108.59
2022-10-18T18:28:12.254Z,101106.97
2022-10-18T18:30:40.596Z,101104.75
2022-10-18T18:33:08.901Z,101107.84
2022-10-18T18:35:36.763Z,101107.19
2022-10-18T18:40:37.392Z,101106.94
2022-10-18T18:43:12.525Z,101101.06
2022-10-18T18:45:50.382Z,101098.69
2022-10-18T18:48:19.857Z,101103.53
2022-10-18T18:50:50.802Z,101113.66
2022-10-18T18:53:20.267Z,101113.09
2022-10-18T18:55:49.785Z,101112.34
2022-10-18T18:58:17.582Z,101113.50
2022-10-18T19:00:45.472Z,101128.75
2022-10-18T19:03:13.368Z,101126.31
2022-10-18T19:05:41.640Z,101128.31
2022-10-18T19:08:09.780Z,101134.72
2022-10-18T19:10:37.521Z,101129.69
2022-10-18T19:13:05.328Z,101133.50
2022-10-18T19:15:33.272Z,101124.81
2022-10-18T19:18:01.797Z,101123.34
2022-10-18T19:20:29.680Z,101129.81
2022-10-18T19:22:57.540Z,101122.97
2022-10-18T19:25:27.088Z,101122.41
2022-10-18T19:27:54.974Z,101117.34
2022-10-18T19:30:23.378Z,101126.63
2022-10-18T19:32:58.671Z,101122.53
2022-10-18T19:35:30.030Z,101126.44
2022-10-18T19:37:57.897Z,101131.22
2022-10-18T19:40:26.602Z,101129.91
2022-10-18T19:42:54.479Z,101136.56
2022-10-18T19:45:22.210Z,101130.66
2022-10-18T19:47:49.951Z,101134.47
2022-10-18T19:50:17.811Z,101132.94
2022-10-18T19:52:45.974Z,101134.00
2022-10-18T19:55:13.757Z,101135.03
2022-10-18T19:57:42.075Z,101140.38
2022-10-18T20:00:10.930Z,101136.94
2022-10-18T20:02:39.168Z,101142.47
2022-10-18T20:05:07.729Z,101148.84
2022-10-18T20:07:35.423Z,101152.47
2022-10-18T20:10:03.630Z,101155.41
2022-10-18T20:12:31.614Z,101156.53
2022-10-18T20:14:59.674Z,101150.66
2022-10-18T20:17:27.705Z,101154.38
2022-10-18T20:19:55.594Z,101146.47
2022-10-18T20:22:23.444Z,101147.56
2022-10-18T20:24:51.155Z,101142.72
2022-10-18T20:27:19.030Z,101148.50
2022-10-18T20:29:47.604Z,101150.78
2022-10-18T20:32:15.340Z,101154.66
2022-10-18T20:34:43.140Z,101146.97
2022-10-18T20:37:11.000Z,101150.84
2022-10-18T20:39:40.696Z,101150.34
2022-10-18T20:42:09.110Z,101150.53
2022-10-18T20:44:39.002Z,101149.00
2022-10-18T20:47:06.813Z,101151.75
2022-10-18T20:49:34.910Z,101149.09
2022-10-18T20:52:02.731Z,101150.72
2022-10-18T20:54:31.221Z,101146.16
2022-10-18T20:56:59.096Z,101155.09
2022-10-18T20:59:26.970Z,101159.81
2022-10-18T21:01:55.049Z,101157.63
2022-10-18T21:04:23.008Z,101162.38
2022-10-18T21:06:51.278Z,101164.47
2022-10-18T21:09:19.179Z,101161.28
2022-10-18T21:11:47.062Z,101167.63
2022-10-18T21:14:14.799Z,101159.84
2022-10-18T21:16:43.516Z,101152.91
2022-10-18T21:19:11.915Z,101158.41
2022-10-18T21:21:39.831Z,101168.28
2022-10-18T21:24:08.405Z,101165.50
2022-10-18T21:26:36.209Z,101160.31
2022-10-18T21:29:04.121Z,101173.00
2022-10-18T21:31:32.776Z,101168.78
2022-10-18T21:34:00.653Z,101158.59
2022-10-18T21:36:28.314Z,101159.78
2022-10-18T21:38:56.183Z,101151.28
2022-10-18T21:41:24.026Z,101151.47
2022-10-18T21:43:51.877Z,101148.88
2022-10-18T21:46:19.665Z,101144.59
2022-10-18T21:48:47.449Z,101147.25
2022-10-18T21:51:15.209Z,101149.16
2022-10-18T21:53:43.013Z,101138.69
2022-10-18T21:56:11.768Z,101147.75
2022-10-18T21:58:39.542Z,101145.97
2022-10-18T22:01:07.426Z,101139.97
2022-10-18T22:03:35.245Z,101148.91
2022-10-18T22:06:03.311Z,101141.00
2022-10-18T22:08:31.560Z,101140.06
2022-10-18T22:10:59.320Z,101141.00
2022-10-18T22:13:27.057Z,101144.66
2022-10-18T22:15:54.726Z,101136.69
2022-10-18T22:18:22.490Z,101134.22
2022-10-18T22:20:50.954Z,101122.03
2022-10-18T22:23:18.611Z,101120.50
2022-10-18T22:25:46.330Z,101120.66
2022-10-18T22:28:14.306Z,101125.28
2022-10-18T22:30:41.951Z,101122.09
2022-10-18T22:33:10.293Z,101115.41
2022-10-18T22:35:38.047Z,101116.59
2022-10-18T22:38:05.642Z,101115.22
2022-10-18T22:40:33.308Z,101111.00
2022-10-18T22:43:00.963Z,101115.53
2022-10-18T22:45:29.215Z,101114.66
2022-10-18T22:47:56.804Z,101119.97
2022-10-18T22:50:24.396Z,101109.34
2022-10-18T22:52:53.953Z,101117.44
2022-10-18T22:55:22.298Z,101119.13
2022-10-18T22:57:50.298Z,101123.56
2022-10-18T23:00:17.922Z,101118.25
2022-10-18T23:02:45.651Z,101116.72
2022-10-18T23:05:13.193Z,101125.97
2022-10-18T23:07:40.728Z,101121.84
2022-10-18T23:10:08.679Z,101127.28
2022-10-18T23:12:36.637Z,101130.19
2022-10-18T23:15:04.234Z,101140.97
2022-10-18T23:17:32.371Z,101140.16
2022-10-18T23:20:00.118Z,101133.94
2022-10-18T23:22:28.051Z,101138.31
2022-10-18T23:24:55.664Z,101140.09
2022-10-18T23:27:23.234Z,101138.38
2022-10-18T23:29:50.852Z,101134.88
2022-10-18T23:32:18.444Z,101137.63
2022-10-18T23:34:47.066Z,101141.13
2022-10-18T23:37:14.640Z,101133.94
2022-10-18T23:39:42.316Z,101133.78
2022-10-18T23:42:09.917Z,101133.72
2022-10-18T23:44:37.473Z,101131.06
2022-10-18T23:47:05.591Z,101134.41
2022-10-18T23:49:33.187Z,101138.59
2022-10-18T23:52:00.749Z,101142.03
2022-10-18T23:54:28.362Z,101144.69
2022-10-18T23:56:56.381Z,101139.47
2022-10-18T23:59:24.589Z,101142.97
